Time;durP1;ratioP1;P1;durP2;ratioP2;P2;SDS_P1;SDS_P2;PMS_P1;PMS_P2;Temp;Humidity;BMP_temperature;BMP_pressure;BME280_temperature;BME280_humidity;BME280_pressure;Samples;Min_cycle;Max_cycle;Signal;HPM_P1;HPM_P2
2021/08/24 00:02:15;;;;;;;11.27;7.05;;;;;;;12.92;100.00;96011.78;5105177;28;20044;-80
2021/08/24 00:04:41;;;;;;;11.73;8.15;;;;;;;12.94;100.00;96014.97;5108275;28;20054;-81
2021/08/24 00:07:06;;;;;;;11.30;8.25;;;;;;;12.88;100.00;96016.03;5091616;28;20551;-81
2021/08/24 00:09:33;;;;;;;11.13;8.30;;;;;;;12.91;100.00;96020.75;5090122;28;20456;-82
2021/08/24 00:11:59;;;;;;;10.55;7.65;;;;;;;12.96;100.00;96020.75;5081189;28;20040;-82
2021/08/24 00:14:25;;;;;;;11.25;7.75;;;;;;;13.03;100.00;96017.03;5104915;28;20057;-83
2021/08/24 00:16:51;;;;;;;9.80;7.22;;;;;;;13.02;100.00;96020.75;5107885;28;20509;-81
2021/08/24 00:19:16;;;;;;;10.00;7.20;;;;;;;13.05;100.00;96015.69;5105411;28;20082;-82
2021/08/24 00:21:42;;;;;;;10.48;6.63;;;;;;;13.05;100.00;96009.63;5090784;28;20166;-81
2021/08/24 00:24:09;;;;;;;8.45;6.45;;;;;;;12.94;100.00;96001.75;5087980;28;20413;-81
2021/08/24 00:26:34;;;;;;;8.40;6.07;;;;;;;12.96;100.00;96002.25;5089219;28;20040;-82
2021/08/24 00:29:00;;;;;;;9.43;6.20;;;;;;;12.93;100.00;96012.56;5104126;28;20047;-82
2021/08/24 00:31:25;;;;;;;7.90;5.63;;;;;;;12.92;100.00;96011.78;5107967;28;20051;-82
2021/08/24 00:33:51;;;;;;;8.75;5.35;;;;;;;12.86;100.00;96018.16;5105822;28;20044;-82
2021/08/24 00:36:19;;;;;;;5.85;4.70;;;;;;;12.99;100.00;96014.16;5109803;28;20093;-82
2021/08/24 00:38:45;;;;;;;5.70;4.47;;;;;;;13.02;100.00;96016.25;5108304;28;20047;-82
2021/08/24 00:41:10;;;;;;;8.75;4.78;;;;;;;12.94;100.00;96009.69;5109033;28;20043;-82
2021/08/24 00:43:39;;;;;;;5.53;3.88;;;;;;;12.84;100.00;96015.00;5106475;28;20055;-82
2021/08/24 00:46:38;;;;;;;5.72;4.47;;;;;;;12.91;100.00;96015.47;5091314;28;20036;-82
2021/08/24 00:49:10;;;;;;;4.90;3.65;;;;;;;12.87;100.00;96013.66;5086925;28;20067;-82
2021/08/24 00:51:38;;;;;;;6.18;4.30;;;;;;;12.84;100.00;96025.56;5125530;27;20111;-82
2021/08/24 00:54:10;;;;;;;5.57;3.80;;;;;;;12.79;100.00;96017.66;5112254;27;20035;-82
2021/08/24 00:56:37;;;;;;;7.43;3.97;;;;;;;12.87;100.00;96013.66;5094562;28;20558;-81
2021/08/24 00:59:03;;;;;;;5.40;4.25;;;;;;;12.87;100.00;96014.44;5097894;28;20544;-82
2021/08/24 01:01:29;;;;;;;7.40;5.03;;;;;;;12.84;100.00;96017.63;5103177;28;20111;-83
2021/08/24 01:03:55;;;;;;;9.68;5.68;;;;;;;12.85;100.00;96021.84;5099085;28;20488;-82
2021/08/24 01:06:33;;;;;;;9.20;6.45;;;;;;;12.74;100.00;96009.75;5112930;28;20121;-82
2021/08/24 01:09:10;;;;;;;10.95;6.55;;;;;;;12.56;100.00;96009.28;5112550;28;20047;-80
2021/08/24 01:11:55;;;;;;;8.80;6.78;;;;;;;12.57;100.00;96016.16;5077377;28;20412;-80
2021/08/24 01:14:40;;;;;;;;;;;;;;;12.66;100.00;96013.75;5105966;28;20059;-82
2021/08/24 01:17:16;;;;;;;9.43;5.72;;;;;;;12.67;100.00;96009.25;5099731;28;19920;-81
2021/08/24 01:20:02;;;;;;;6.47;4.93;;;;;;;12.71;99.94;96015.59;5100331;28;20042;-81
2021/08/24 01:22:51;;;;;;;7.80;4.95;;;;;;;12.56;99.96;96014.56;5112337;28;20558;-81
2021/08/24 01:25:29;;;;;;;7.88;4.45;;;;;;;12.50;99.52;96015.66;5094291;28;20038;-81
2021/08/24 01:28:12;;;;;;;5.78;3.90;;;;;;;12.50;99.51;96020.94;5089945;28;20106;-81
2021/08/24 01:30:59;;;;;;;5.28;3.60;;;;;;;12.56;100.00;96025.13;5092033;28;20035;-80
2021/08/24 01:33:52;;;;;;;5.32;3.38;;;;;;;12.39;99.66;96022.03;5110105;28;20040;-81
2021/08/24 01:36:26;;;;;;;4.55;3.20;;;;;;;12.44;100.00;96027.28;5112670;28;20097;-80
2021/08/24 01:38:52;;;;;;;4.80;3.40;;;;;;;12.43;100.00;96015.16;5112341;28;20523;-81
2021/08/24 01:41:24;;;;;;;5.43;3.30;;;;;;;12.47;100.00;96022.25;5091045;28;20052;-81
2021/08/24 01:44:12;;;;;;;4.93;3.28;;;;;;;12.49;100.00;96019.34;5093418;28;20043;-81
2021/08/24 01:46:53;;;;;;;4.80;3.42;;;;;;;12.48;100.00;96021.22;5095387;28;20043;-81
2021/08/24 01:49:23;;;;;;;5.72;3.33;;;;;;;12.56;99.70;96014.56;5110065;28;20047;-81
2021/08/24 01:51:56;;;;;;;5.68;3.60;;;;;;;12.41;99.79;96011.97;5092949;28;20059;-81
2021/08/24 01:54:32;;;;;;;5.78;3.80;;;;;;;12.49;99.46;96024.63;5094885;28;20054;-80
2021/08/24 01:56:59;;;;;;;5.75;4.47;;;;;;;12.45;99.81;96023.56;5093201;28;20039;-81
2021/08/24 01:59:31;;;;;;;6.05;4.47;;;;;;;12.48;100.00;96017.75;5085060;28;20035;-80
2021/08/24 02:02:13;;;;;;;5.90;4.35;;;;;;;12.40;99.85;96018.34;5092253;28;20066;-81
2021/08/24 02:04:52;;;;;;;7.68;4.30;;;;;;;12.47;100.00;96010.91;5094897;28;20059;-81
2021/08/24 02:07:20;;;;;;;4.75;3.60;;;;;;;12.39;98.86;96014.09;5093115;28;20036;-81
2021/08/24 02:09:49;;;;;;;4.57;3.35;;;;;;;12.44;99.78;96016.72;5091148;28;20044;-81
2021/08/24 02:12:19;;;;;;;6.28;3.50;;;;;;;12.35;100.00;96002.50;5091804;28;20070;-81
2021/08/24 02:14:45;;;;;;;4.32;3.30;;;;;;;12.35;99.66;96013.06;5092917;28;20134;-81
2021/08/24 02:17:15;;;;;;;5.10;3.45;;;;;;;12.37;99.13;96021.47;5112081;28;20047;-81
2021/08/24 02:19:51;;;;;;;6.50;3.67;;;;;;;12.39;99.57;96019.38;5110397;28;20047;-81
2021/08/24 02:22:21;;;;;;;5.20;3.80;;;;;;;12.34;98.68;96014.91;5110733;28;20054;-82
2021/08/24 02:24:54;;;;;;;5.78;4.05;;;;;;;12.27;99.75;96011.75;5092219;28;20055;-81
2021/08/24 02:27:26;;;;;;;5.50;3.63;;;;;;;12.19;98.75;96010.44;5111541;28;20106;-80
2021/08/24 02:29:52;;;;;;;7.20;3.83;;;;;;;12.24;99.20;96015.72;5107958;28;20042;-81
2021/08/24 02:32:24;;;;;;;6.97;4.35;;;;;;;12.13;97.87;96011.50;5106703;28;20040;-82
2021/08/24 02:35:29;;;;;;;7.32;3.80;;;;;;;12.14;98.19;96007.81;5092586;28;20066;-81
2021/08/24 02:38:13;;;;;;;6.97;3.83;;;;;;;12.20;99.41;96011.25;5072046;28;20067;-81
2021/08/24 02:40:46;;;;;;;5.82;3.80;;;;;;;12.16;99.09;96005.69;5096044;28;20036;-81
2021/08/24 02:43:18;;;;;;;6.18;3.83;;;;;;;12.11;96.87;96005.69;5109411;28;20044;-80
2021/08/24 02:45:52;;;;;;;8.65;3.53;;;;;;;11.95;98.45;96011.00;5111315;28;20032;-81
2021/08/24 02:48:20;;;;;;;5.93;3.92;;;;;;;12.01;98.12;96005.72;5109885;28;20031;-81
2021/08/24 02:50:46;;;;;;;5.43;3.45;;;;;;;12.01;98.44;96009.16;5105920;28;20046;-81
2021/08/24 02:53:13;;;;;;;8.95;3.65;;;;;;;12.06;98.22;96011.00;5109334;28;20035;-80
2021/08/24 02:55:39;;;;;;;7.25;3.67;;;;;;;12.11;98.54;96013.59;5091728;28;20046;-82
2021/08/24 02:58:04;;;;;;;6.15;3.72;;;;;;;12.01;97.65;96013.63;5090274;28;20044;-81
2021/08/24 03:00:30;;;;;;;7.57;3.65;;;;;;;12.12;97.91;96015.19;5091948;28;20039;-81
2021/08/24 03:02:55;;;;;;;6.03;3.55;;;;;;;12.03;97.29;95995.72;5100822;27;20087;-81
2021/08/24 03:05:21;;;;;;;8.30;3.55;;;;;;;12.06;96.24;96000.44;5091421;28;20412;-81
2021/08/24 03:07:46;;;;;;;6.50;3.40;;;;;;;12.07;95.83;96007.31;5110099;28;20043;-82
2021/08/24 03:10:15;;;;;;;7.20;3.22;;;;;;;12.06;96.56;96011.00;5108921;28;20093;-81
2021/08/24 03:12:47;;;;;;;6.18;3.58;;;;;;;12.06;96.34;96008.34;5105213;28;20044;-81
2021/08/24 03:15:28;;;;;;;5.57;3.42;;;;;;;11.99;96.42;96005.97;5109579;28;20044;-80
2021/08/24 03:18:00;;;;;;;6.28;3.38;;;;;;;11.94;95.88;95998.88;5092046;28;20092;-81
2021/08/24 03:20:31;;;;;;;5.82;3.38;;;;;;;11.98;97.25;96003.63;5107666;28;20039;-81
2021/08/24 03:22:58;;;;;;;6.22;3.35;;;;;;;11.93;96.72;96007.84;5089044;28;20044;-81
2021/08/24 03:25:24;;;;;;;7.28;3.30;;;;;;;11.96;95.86;95999.38;5108478;28;20408;-81
2021/08/24 03:27:52;;;;;;;7.38;3.50;;;;;;;12.02;96.35;96004.66;5110562;28;20036;-81
2021/08/24 03:30:20;;;;;;;8.57;3.60;;;;;;;11.85;95.58;96003.09;5089322;28;20405;-81
2021/08/24 03:32:46;;;;;;;7.03;3.50;;;;;;;11.89;97.22;95990.94;5091517;28;20054;-81
2021/08/24 03:35:13;;;;;;;8.10;3.20;;;;;;;11.95;96.66;96011.00;5108238;28;20051;-81
2021/08/24 03:37:39;;;;;;;7.40;3.15;;;;;;;11.99;97.31;96021.03;5106722;28;20039;-81
2021/08/24 03:40:07;;;;;;;6.97;3.83;;;;;;;11.98;98.22;96014.16;5109999;28;20039;-81
2021/08/24 03:42:33;;;;;;;5.85;3.30;;;;;;;12.00;97.04;96019.97;5105399;28;20035;-81
2021/08/24 03:44:59;;;;;;;5.80;3.55;;;;;;;11.92;95.94;96016.78;5091612;28;20051;-81
2021/08/24 03:47:25;;;;;;;7.55;3.58;;;;;;;11.89;97.27;96022.56;5108658;28;20069;-81
2021/08/24 03:49:50;;;;;;;6.53;3.35;;;;;;;11.79;96.79;96023.38;5109654;28;20044;-81
2021/08/24 03:52:16;;;;;;;5.82;3.70;;;;;;;11.80;95.96;96010.97;5110412;27;20039;-81
2021/08/24 03:54:42;;;;;;;7.93;3.72;;;;;;;11.83;95.65;96017.59;5091527;28;20412;-82
2021/08/24 03:57:07;;;;;;;7.13;3.72;;;;;;;11.84;95.77;96019.97;5108629;28;20067;-81
2021/08/24 03:59:33;;;;;;;6.53;4.00;;;;;;;11.79;95.56;96033.13;5109541;28;20579;-81
2021/08/24 04:02:00;;;;;;;6.15;3.85;;;;;;;11.73;94.63;96028.91;5104421;28;20516;-81
2021/08/24 04:04:26;;;;;;;8.13;3.80;;;;;;;11.79;96.71;96025.22;5101401;28;20119;-81
2021/08/24 04:06:51;;;;;;;6.85;3.92;;;;;;;11.80;97.99;96034.72;5107944;28;20036;-81
2021/08/24 04:09:17;;;;;;;6.30;3.70;;;;;;;11.87;96.17;96026.56;5108312;28;20039;-83
2021/08/24 04:11:42;;;;;;;6.75;3.95;;;;;;;11.87;96.53;96024.69;5096968;28;20098;-81
2021/08/24 04:14:08;;;;;;;9.82;3.97;;;;;;;11.86;95.43;96038.94;5108017;28;20106;-81
2021/08/24 04:16:33;;;;;;;8.55;4.18;;;;;;;11.87;98.28;96035.25;5090234;28;20036;-81
2021/08/24 04:18:59;;;;;;;9.90;4.30;;;;;;;11.85;96.99;96037.38;5089698;28;20043;-81
2021/08/24 04:21:25;;;;;;;9.50;4.40;;;;;;;11.86;96.05;96027.59;5109407;28;20035;-81
2021/08/24 04:23:50;;;;;;;8.43;3.90;;;;;;;11.82;95.06;96051.06;5091597;28;20051;-80
2021/08/24 04:26:17;;;;;;;6.70;4.05;;;;;;;11.87;96.03;96053.69;5111680;28;20107;-80
2021/08/24 04:28:43;;;;;;;11.20;4.13;;;;;;;11.99;97.33;96050.03;5112539;28;20039;-80
2021/08/24 04:31:13;;;;;;;8.80;4.35;;;;;;;11.83;95.76;96050.00;5112436;28;20110;-81
2021/08/24 04:33:38;;;;;;;7.90;4.05;;;;;;;11.93;96.79;96043.94;5092851;28;20063;-81
2021/08/24 04:36:05;;;;;;;12.13;4.45;;;;;;;11.89;96.18;96041.03;5113613;28;20416;-81
2021/08/24 04:38:31;;;;;;;8.38;4.70;;;;;;;11.90;96.71;96050.53;5111409;28;20068;-81
2021/08/24 04:40:58;;;;;;;10.45;4.93;;;;;;;11.73;95.02;96039.47;5111131;28;20585;-80
2021/08/24 04:43:24;;;;;;;12.50;5.25;;;;;;;11.74;95.62;96046.31;5111932;28;20078;-81
2021/08/24 04:45:49;;;;;;;8.77;5.05;;;;;;;11.74;95.45;96046.31;5113337;28;20061;-80
2021/08/24 04:48:15;;;;;;;11.63;5.60;;;;;;;11.68;95.97;96052.63;5110356;28;20788;-82
2021/08/24 04:50:41;;;;;;;10.38;6.18;;;;;;;11.67;95.92;96048.44;5113365;28;20508;-81
2021/08/24 04:53:07;;;;;;;13.10;5.82;;;;;;;11.65;96.53;96053.16;5112856;28;20044;-81
2021/08/24 04:55:33;;;;;;;11.35;5.55;;;;;;;11.72;96.26;96061.59;5111501;28;20097;-81
2021/08/24 04:58:02;;;;;;;12.32;5.72;;;;;;;11.71;96.60;96052.91;5111874;28;20043;-81
2021/08/24 05:00:29;;;;;;;10.93;5.63;;;;;;;11.78;94.94;96065.84;5107394;28;20040;-81
2021/08/24 05:02:54;;;;;;;10.40;5.63;;;;;;;11.82;96.47;96058.97;5103668;28;20043;-81
2021/08/24 05:05:20;;;;;;;11.27;6.13;;;;;;;11.66;96.19;96044.22;5110469;28;20036;-80
2021/08/24 05:07:45;;;;;;;9.95;6.10;;;;;;;11.71;96.26;96062.66;5112031;28;20039;-81
2021/08/24 05:10:11;;;;;;;12.57;6.07;;;;;;;11.77;95.99;96058.97;5111270;28;20040;-81
2021/08/24 05:12:37;;;;;;;10.50;6.03;;;;;;;11.66;97.75;96066.06;5109548;28;20070;-81
2021/08/24 05:15:02;;;;;;;11.40;6.22;;;;;;;11.69;96.60;96065.53;5113099;28;20054;-81
2021/08/24 05:17:28;;;;;;;12.55;6.32;;;;;;;11.66;95.99;96062.66;5093971;28;20063;-81
2021/08/24 05:19:54;;;;;;;10.80;6.32;;;;;;;11.69;96.31;96059.50;5112074;28;20114;-81
2021/08/24 05:22:19;;;;;;;11.13;5.88;;;;;;;11.73;95.66;96076.38;5111553;28;20047;-81
2021/08/24 05:24:44;;;;;;;10.32;6.43;;;;;;;11.74;95.56;96072.69;5112573;28;20059;-81
2021/08/24 05:27:10;;;;;;;11.00;5.90;;;;;;;11.76;95.38;96070.56;5110267;28;20043;-81
2021/08/24 05:29:36;;;;;;;10.40;6.43;;;;;;;11.70;95.84;96076.91;5094156;28;20438;-81
2021/08/24 05:32:02;;;;;;;10.40;6.25;;;;;;;11.71;96.41;96074.00;5107078;28;20061;-81
2021/08/24 05:34:29;;;;;;;10.30;5.85;;;;;;;11.72;96.35;96069.50;5094422;28;20105;-81
2021/08/24 05:36:54;;;;;;;11.05;5.97;;;;;;;11.76;95.29;96081.13;5099464;28;20112;-80
2021/08/24 05:39:20;;;;;;;10.60;5.93;;;;;;;11.82;95.64;96074.78;5111938;28;20115;-80
2021/08/24 05:41:46;;;;;;;11.40;5.90;;;;;;;11.82;95.23;96080.06;5113209;27;20390;-80
2021/08/24 05:44:11;;;;;;;11.35;6.28;;;;;;;11.77;98.01;96077.44;5104708;28;20043;-80
2021/08/24 05:46:37;;;;;;;11.18;6.20;;;;;;;11.86;96.53;96080.34;5111591;28;20046;-81
2021/08/24 05:49:03;;;;;;;15.73;6.40;;;;;;;11.85;96.44;96074.28;5086990;28;20110;-81
2021/08/24 05:51:28;;;;;;;11.48;6.57;;;;;;;11.87;96.31;96077.44;5092116;28;20059;-81
2021/08/24 05:53:53;;;;;;;11.60;7.03;;;;;;;11.88;97.45;96079.03;5092948;28;20115;-81
2021/08/24 05:56:23;;;;;;;13.20;7.70;;;;;;;11.88;97.43;96084.31;5109995;28;20048;-81
2021/08/24 05:58:51;;;;;;;13.07;7.38;;;;;;;11.87;96.87;96085.34;5105948;28;20054;-80
2021/08/24 06:01:21;;;;;;;12.60;7.30;;;;;;;11.94;98.53;96091.19;5103106;28;20112;-80
2021/08/24 06:03:48;;;;;;;12.65;6.70;;;;;;;11.75;96.60;96084.81;5092636;28;20048;-81
2021/08/24 06:06:26;;;;;;;13.10;7.10;;;;;;;11.83;97.07;96086.94;5106746;28;20036;-80
2021/08/24 06:08:53;;;;;;;14.60;7.07;;;;;;;11.90;98.39;96092.72;5111968;28;20047;-82
2021/08/24 06:11:44;;;;;;;14.55;8.57;;;;;;;12.00;99.65;96091.19;5089363;28;20444;-81
2021/08/24 06:14:10;;;;;;;13.85;7.47;;;;;;;11.99;99.26;96100.16;5111809;28;20051;-81
2021/08/24 06:16:40;;;;;;;11.13;7.30;;;;;;;12.01;99.37;96103.31;5108634;28;20055;-81
2021/08/24 06:19:07;;;;;;;13.07;6.95;;;;;;;12.06;98.95;96098.06;5103396;28;20047;-81
2021/08/24 06:21:33;;;;;;;13.52;6.93;;;;;;;11.94;97.95;96093.81;5104172;28;20035;-80
2021/08/24 06:24:00;;;;;;;12.32;7.07;;;;;;;11.92;98.10;96095.91;5111535;28;20044;-80
2021/08/24 06:26:25;;;;;;;16.10;7.30;;;;;;;11.98;97.05;96098.56;5108740;28;20112;-81
2021/08/24 06:28:51;;;;;;;11.32;7.30;;;;;;;11.96;96.34;96102.25;5110370;28;20473;-80
2021/08/24 06:31:23;;;;;;;11.90;7.70;;;;;;;12.05;97.15;96099.09;5109751;27;20061;-81
2021/08/24 06:33:49;;;;;;;27.98;9.07;;;;;;;12.07;96.62;96091.72;5105210;28;20038;-80
2021/08/24 06:36:15;;;;;;;12.40;7.53;;;;;;;11.99;96.70;96095.66;5108876;28;20044;-80
2021/08/24 06:38:42;;;;;;;14.00;7.70;;;;;;;11.94;97.37;96093.81;5111372;28;20070;-81
2021/08/24 06:41:08;;;;;;;13.55;7.65;;;;;;;11.87;96.65;96108.31;5109080;28;20050;-80
2021/08/24 06:43:34;;;;;;;11.50;7.80;;;;;;;11.81;97.75;96099.59;5100744;28;20035;-80
2021/08/24 06:45:59;;;;;;;13.90;8.70;;;;;;;11.89;99.63;96096.41;5090909;28;20043;-81
2021/08/24 06:48:25;;;;;;;12.45;8.23;;;;;;;12.03;98.92;96106.50;5110784;28;20484;-80
2021/08/24 06:50:51;;;;;;;12.50;7.53;;;;;;;12.02;98.03;96102.25;5082876;28;20051;-81
2021/08/24 06:53:17;;;;;;;14.13;7.30;;;;;;;12.06;96.99;96100.69;5118270;27;20042;-81
2021/08/24 06:55:43;;;;;;;10.30;6.93;;;;;;;11.95;97.47;96100.69;5110585;28;20051;-79
2021/08/24 06:58:10;;;;;;;11.93;7.50;;;;;;;12.01;97.89;96105.94;5084806;28;20043;-80
2021/08/24 07:00:37;;;;;;;11.98;7.45;;;;;;;11.96;97.61;96112.81;5108024;27;20039;-80
2021/08/24 07:03:05;;;;;;;11.13;7.22;;;;;;;11.99;98.71;96110.72;5102886;28;20044;-80
2021/08/24 07:05:32;;;;;;;9.43;6.90;;;;;;;12.03;98.16;96111.78;5104345;28;20093;-81
2021/08/24 07:07:58;;;;;;;13.10;7.05;;;;;;;12.11;98.26;96113.88;5086696;28;20036;-80
2021/08/24 07:10:25;;;;;;;9.52;6.50;;;;;;;12.11;97.66;96114.69;5100707;28;20039;-80
2021/08/24 07:12:51;;;;;;;10.77;7.55;;;;;;;11.96;98.04;96107.53;5088997;28;20048;-81
2021/08/24 07:15:19;;;;;;;13.02;8.18;;;;;;;12.02;98.63;96120.72;5086203;28;20051;-80
2021/08/24 07:17:49;;;;;;;13.45;7.95;;;;;;;12.09;98.31;96105.44;5087978;28;20035;-81
2021/08/24 07:20:18;;;;;;;14.75;8.05;;;;;;;12.18;98.58;96108.34;5100920;27;20032;-80
2021/08/24 07:22:44;;;;;;;13.95;8.52;;;;;;;12.09;99.77;96105.44;5108259;28;20078;-80
2021/08/24 07:25:12;;;;;;;17.33;7.57;;;;;;;12.10;98.54;96117.56;5090500;28;20046;-80
2021/08/24 07:27:38;;;;;;;13.38;7.90;;;;;;;12.18;99.59;96117.03;5105637;28;20046;-80
2021/08/24 07:30:05;;;;;;;12.25;7.30;;;;;;;12.07;97.04;96110.19;5094821;27;20039;-80
2021/08/24 07:32:30;;;;;;;13.75;7.47;;;;;;;12.04;99.30;96123.88;5102346;28;20282;-81
2021/08/24 07:34:56;;;;;;;12.88;7.47;;;;;;;12.19;98.22;96115.97;5091531;28;20126;-81
2021/08/24 07:37:21;;;;;;;11.35;7.00;;;;;;;12.25;98.12;96120.19;5103762;28;20059;-81
2021/08/24 07:39:47;;;;;;;11.00;7.30;;;;;;;12.21;97.55;96113.88;5107338;28;20097;-78
2021/08/24 07:42:12;;;;;;;10.32;7.00;;;;;;;12.29;99.14;96115.97;5105716;28;20053;-80
2021/08/24 07:44:38;;;;;;;11.77;6.80;;;;;;;12.21;98.76;96113.06;5110729;28;20067;-81
2021/08/24 07:47:06;;;;;;;7.45;5.50;;;;;;;12.21;96.11;96123.63;5108368;28;20047;-79
2021/08/24 07:49:37;;;;;;;9.90;6.32;;;;;;;12.25;99.23;96125.47;5080774;28;20044;-79
2021/08/24 07:52:05;;;;;;;11.35;6.85;;;;;;;12.29;97.99;96121.25;5095196;28;20089;-80
2021/08/24 07:54:31;;;;;;;9.40;6.50;;;;;;;12.15;96.81;96120.19;5094324;28;20046;-78
2021/08/24 07:56:57;;;;;;;11.18;6.80;;;;;;;12.26;98.01;96129.69;5112300;28;20043;-80
2021/08/24 07:59:23;;;;;;;10.15;6.90;;;;;;;12.29;99.09;96131.81;5107426;28;20047;-79
2021/08/24 08:01:48;;;;;;;11.63;7.93;;;;;;;12.25;97.60;96136.03;5110298;28;20059;-80
2021/08/24 08:04:14;;;;;;;11.93;8.10;;;;;;;12.27;98.93;96133.94;5105935;28;20489;-79
2021/08/24 08:06:39;;;;;;;15.55;7.88;;;;;;;12.28;98.75;96140.81;5111996;28;20047;-79
2021/08/24 08:09:06;;;;;;;11.07;7.60;;;;;;;12.37;99.36;96140.25;5093801;28;20043;-79
2021/08/24 08:11:36;;;;;;;15.30;8.70;;;;;;;12.35;97.71;96135.25;5100681;28;20040;-77
2021/08/24 08:14:01;;;;;;;14.55;8.43;;;;;;;12.21;98.96;96142.91;5112488;28;20044;-80
2021/08/24 08:16:27;;;;;;;12.40;7.75;;;;;;;12.28;99.05;96140.81;5111926;28;20105;-78
2021/08/24 08:18:53;;;;;;;12.20;8.40;;;;;;;12.29;99.04;96142.38;5085121;28;20052;-78
2021/08/24 08:21:19;;;;;;;15.27;9.18;;;;;;;12.25;99.38;96143.16;5091002;28;20051;-79
2021/08/24 08:23:45;;;;;;;12.60;8.55;;;;;;;12.21;98.76;96140.28;5095712;28;20040;-79
2021/08/24 08:26:11;;;;;;;13.30;8.60;;;;;;;12.25;99.44;96138.66;5108549;28;20047;-80
2021/08/24 08:28:36;;;;;;;12.23;8.70;;;;;;;12.26;97.83;96153.44;5108326;28;20043;-78
2021/08/24 08:31:03;;;;;;;15.68;9.52;;;;;;;12.36;100.00;96146.59;5112216;28;20479;-78
2021/08/24 08:33:33;;;;;;;17.05;9.52;;;;;;;12.57;100.00;96145.53;5104307;28;20047;-82
2021/08/24 08:35:58;;;;;;;12.27;8.63;;;;;;;12.56;98.05;96130.75;5085458;28;20047;-78
2021/08/24 08:38:24;;;;;;;11.50;8.75;;;;;;;12.75;97.74;96143.38;5109410;28;20043;-79
2021/08/24 08:41:03;;;;;;;15.15;10.35;;;;;;;12.78;100.00;96143.63;5083390;28;20035;-80
2021/08/24 08:43:53;;;;;;;13.88;9.70;;;;;;;12.86;100.00;96138.84;5103442;28;20043;-77
2021/08/24 08:46:43;;;;;;;15.50;9.30;;;;;;;12.86;99.53;96144.94;5084344;28;20420;-81
2021/08/24 08:49:23;;;;;;;12.38;8.90;;;;;;;12.85;98.37;96143.34;5091396;28;20040;-78
2021/08/24 08:52:10;;;;;;;15.13;8.63;;;;;;;12.67;99.03;96149.19;5095516;28;20046;-83
2021/08/24 08:54:54;;;;;;;15.43;9.77;;;;;;;12.83;100.00;96150.78;5105249;28;20040;-80
2021/08/24 08:57:26;;;;;;;13.68;9.43;;;;;;;12.86;97.84;96147.59;5091552;28;20812;-81
2021/08/24 09:00:14;;;;;;;11.25;8.10;;;;;;;12.77;96.47;96146.53;5123330;28;20089;-80
2021/08/24 09:02:52;;;;;;;13.13;8.68;;;;;;;12.83;96.77;96145.50;5115981;28;20036;-84
2021/08/24 09:05:23;;;;;;;13.07;9.30;;;;;;;12.80;95.97;96146.00;5099338;28;20043;-79
2021/08/24 09:07:58;;;;;;;13.20;9.40;;;;;;;12.81;96.92;96144.94;5092908;28;20034;-80
2021/08/24 09:10:32;;;;;;;14.00;9.60;;;;;;;12.75;98.58;96148.66;5113064;28;20063;-79
2021/08/24 09:13:11;;;;;;;14.00;9.13;;;;;;;12.63;97.11;96146.31;5100028;28;20040;-79
2021/08/24 09:15:45;;;;;;;13.43;9.30;;;;;;;12.65;96.85;96147.59;5100187;28;20056;-82
2021/08/24 09:18:15;;;;;;;13.45;9.07;;;;;;;12.71;97.30;96147.63;5113235;28;20039;-80
2021/08/24 09:20:56;;;;;;;14.90;9.48;;;;;;;12.71;95.75;96147.63;5093890;28;20624;-81
2021/08/24 09:23:21;;;;;;;13.45;9.10;;;;;;;12.90;96.54;96155.75;5076847;28;20066;-78
2021/08/24 09:26:05;;;;;;;17.83;9.73;;;;;;;12.90;97.95;96151.28;5106090;28;20051;-79
2021/08/24 09:28:33;;;;;;;11.82;8.55;;;;;;;13.00;96.72;96156.53;5094763;28;20097;-82
2021/08/24 09:30:59;;;;;;;14.82;8.10;;;;;;;12.80;96.46;96152.09;5108068;28;20039;-81
2021/08/24 09:33:26;;;;;;;14.52;8.85;;;;;;;12.91;97.47;96147.56;5113006;27;20451;-81
2021/08/24 09:35:51;;;;;;;14.75;9.07;;;;;;;12.84;96.99;96147.06;5124150;27;20105;-80
2021/08/24 09:38:28;;;;;;;12.70;8.63;;;;;;;13.02;95.75;96147.56;5098695;27;20044;-81
2021/08/24 09:40:59;;;;;;;14.32;8.30;;;;;;;13.07;95.52;96144.88;5102506;28;20056;-80
2021/08/24 09:43:36;;;;;;;12.88;8.30;;;;;;;13.11;95.34;96145.94;5087559;28;20408;-79
2021/08/24 09:46:06;;;;;;;15.85;10.05;;;;;;;13.09;96.49;96148.06;5109558;28;20048;-79
2021/08/24 09:49:04;;;;;;;14.65;10.00;;;;;;;13.00;97.15;96153.91;5091179;28;20039;-79
2021/08/24 09:51:52;;;;;;;19.45;10.13;;;;;;;12.94;96.65;96152.34;5078184;28;20040;-81
2021/08/24 09:54:20;;;;;;;18.67;10.30;;;;;;;13.08;97.16;96149.91;5128345;27;20073;-81
2021/08/24 09:56:57;;;;;;;15.90;9.23;;;;;;;13.27;95.58;96149.31;5121812;27;20043;-82
2021/08/24 09:59:31;;;;;;;16.17;8.68;;;;;;;13.39;95.34;96151.66;5107319;28;20500;-80
2021/08/24 10:01:57;;;;;;;11.60;8.57;;;;;;;13.48;94.92;96152.69;5114440;28;20066;-80
2021/08/24 10:04:23;;;;;;;11.27;8.02;;;;;;;13.60;93.22;96155.78;5097585;28;20040;-81
2021/08/24 10:06:53;;;;;;;10.60;8.05;;;;;;;13.82;92.33;96149.31;5091970;28;20629;-80
2021/08/24 10:09:35;;;;;;;12.15;7.22;;;;;;;13.94;94.10;96149.78;5097878;28;20035;-84
2021/08/24 10:12:15;;;;;;;10.88;7.18;;;;;;;14.07;91.10;96150.25;5091402;27;20043;-81
2021/08/24 10:14:42;;;;;;;10.93;6.90;;;;;;;13.87;90.51;96149.31;5118427;28;20709;-81
2021/08/24 10:17:34;;;;;;;8.02;5.78;;;;;;;13.91;89.81;96158.28;5115692;28;20454;-81
2021/08/24 10:20:02;;;;;;;8.40;6.07;;;;;;;13.93;89.96;96161.44;5095145;28;20036;-80
2021/08/24 10:22:31;;;;;;;11.48;5.38;;;;;;;13.98;91.18;96158.75;5090684;28;20043;-78
2021/08/24 10:25:02;;;;;;;9.32;5.50;;;;;;;13.90;87.97;96151.41;5091191;28;20082;-79
2021/08/24 10:27:35;;;;;;;9.55;5.18;;;;;;;13.88;89.51;96155.38;5097953;28;20055;-77
2021/08/24 10:30:08;;;;;;;8.55;5.40;;;;;;;14.02;89.71;96154.50;5105084;27;20106;-78
2021/08/24 10:32:40;;;;;;;12.43;5.82;;;;;;;14.15;91.75;96152.28;5106509;28;20043;-77
2021/08/24 10:35:25;;;;;;;8.90;5.72;;;;;;;13.99;88.49;96148.97;5098656;28;20048;-82
2021/08/24 10:37:52;;;;;;;8.20;5.45;;;;;;;14.08;88.22;96142.03;5100815;28;20044;-81
2021/08/24 10:40:42;;;;;;;9.07;5.55;;;;;;;14.16;88.79;96146.72;5088522;28;20043;-84
2021/08/24 10:43:10;;;;;;;8.05;5.60;;;;;;;14.40;89.41;96147.88;5090517;28;20055;-80
2021/08/24 10:45:39;;;;;;;10.02;6.10;;;;;;;14.43;88.19;96142.03;5116058;28;20058;-78
2021/08/24 10:48:08;;;;;;;7.72;5.68;;;;;;;14.55;88.38;96145.06;5090750;28;20401;-80
2021/08/24 10:51:02;;;;;;;7.03;4.85;;;;;;;14.79;87.27;96144.38;5089215;27;20044;-81
2021/08/24 10:53:30;;;;;;;6.70;4.65;;;;;;;15.33;87.60;96143.25;5115831;27;20047;-78
2021/08/24 10:56:04;;;;;;;7.90;5.00;;;;;;;15.44;85.54;96143.88;5136709;27;20038;-79
2021/08/24 10:58:56;;;;;;;7.77;4.37;;;;;;;15.79;86.49;96143.72;5130766;27;20046;-80
2021/08/24 11:01:37;;;;;;;6.63;4.40;;;;;;;16.08;81.23;96141.72;5072663;28;20344;-80
2021/08/24 11:04:28;;;;;;;5.80;3.88;;;;;;;16.37;79.64;96142.63;5107622;27;20048;-79
2021/08/24 11:07:12;;;;;;;6.00;4.28;;;;;;;15.97;82.76;96145.59;5113341;28;20040;-78
2021/08/24 11:09:50;;;;;;;5.10;3.90;;;;;;;15.87;83.85;96140.44;5108865;28;20039;-78
2021/08/24 11:12:45;;;;;;;7.32;4.10;;;;;;;16.35;78.92;96134.94;5113723;28;20039;-79
2021/08/24 11:15:13;;;;;;;5.70;3.83;;;;;;;16.48;81.18;96148.53;5113301;28;20048;-82
2021/08/24 11:17:46;;;;;;;6.22;4.00;;;;;;;16.38;82.51;96139.66;5096479;28;20039;-85
2021/08/24 11:20:21;;;;;;;5.43;3.83;;;;;;;16.00;83.72;96142.38;5110495;27;20047;-83
2021/08/24 11:23:35;;;;;;;8.32;3.80;;;;;;;16.29;81.20;96141.41;5093361;28;20040;-80
2021/08/24 11:26:17;;;;;;;5.75;3.90;;;;;;;16.63;81.18;96140.31;5072511;28;20460;-82
2021/08/24 11:28:55;;;;;;;5.97;3.80;;;;;;;16.67;83.54;96141.31;5108305;28;20039;-79
2021/08/24 11:31:25;;;;;;;6.60;3.67;;;;;;;16.54;78.45;96147.38;5107712;28;20043;-77
2021/08/24 11:34:18;;;;;;;5.72;3.70;;;;;;;16.80;79.94;96151.16;5099691;28;20062;-78
2021/08/24 11:36:52;;;;;;;5.50;3.88;;;;;;;16.78;78.33;96152.56;5085270;28;20047;-80
2021/08/24 11:39:24;;;;;;;6.50;3.83;;;;;;;16.58;77.84;96148.38;5078436;28;20050;-77
2021/08/24 11:41:57;;;;;;;6.93;4.32;;;;;;;16.68;77.91;96156.19;5110651;28;20432;-79
2021/08/24 11:44:31;;;;;;;7.70;3.67;;;;;;;16.29;81.16;96146.69;5105353;28;20043;-79
2021/08/24 11:47:08;;;;;;;5.57;3.67;;;;;;;16.62;79.64;96152.00;5082821;28;20043;-78